Vronskiy — C4AY2 — position and weather

sailwx.info

Track history (hours):
 
Tides and Currents Weather Stations Pressure Air Temp Water Temp Dewpoint Dewpoint Depression Visibility Wind Speed Wind Dir Waves Ship Positions

Vronskiy

Last reported at 2015-Jan-28 08:33 UTC. Time now 2015-Jan-28 09:16 UTC.
Position N 35°59' W 005°28'.

Length 131 m; draft 5.2 m.

Type: Passenger vessel. MMSI: 210030000.

Date/timePositionNaut miles runAvg speedWind from/ knotsBaromVisibWave heightAir tempDewpointWater temp
2015-Jan-28 08:33N 35°59' W 005°28'10 1.6
2015-Jan-28 02:15N 36°09' W 005°26'1313.0
2015-Jan-28 01:17N 35°56' W 005°28'6 1.5
2015-Jan-27 21:33N 36°01' W 005°25'7 2.7
2015-Jan-27 19:09N 36°08' W 005°26'7 9.4
2015-Jan-27 18:23N 36°01' W 005°24'5 1.6
2015-Jan-27 15:33N 35°58' W 005°29'3 0.4
2015-Jan-27 08:32N 36°01' W 005°26'2 0.3
2015-Jan-27 01:15N 36°01' W 005°24'7 2.3
2015-Jan-26 22:15N 35°56' W 005°30'1115.0
2015-Jan-26 21:32N 36°06' W 005°24'11 2.0
2015-Jan-26 16:14N 35°56' W 005°30'1014.4
2015-Jan-26 15:33N 36°05' W 005°24'5 1.5
2015-Jan-26 12:29N 36°09' W 005°26'1313.1
2015-Jan-26 11:32N 35°57' W 005°28'2 0.7
2015-Jan-26 08:33N 35°59' W 005°29'6 1.4
2015-Jan-26 04:12N 36°03' W 005°24'6 1.8
2015-Jan-26 00:34N 35°58' W 005°29'10 3.2
2015-Jan-25 21:30N 36°08' W 005°26'1010.2
2015-Jan-25 20:31N 35°58' W 005°25'4 1.4
2015-Jan-25 17:28N 35°56' W 005°30'1213.6
2015-Jan-25 16:33N 36°08' W 005°24'2 1.8
2015-Jan-25 15:28N 36°08' W 005°26'0 0.0
2015-Jan-25 14:28N 36°08' W 005°26'0 0.0
2015-Jan-25 13:28N 36°08' W 005°26'7 6.2
2015-Jan-25 12:21N 36°01' W 005°24'9 3.4
2015-Jan-25 09:33N 35°54' W 005°31'1313.3
2015-Jan-25 08:33N 36°06' W 005°24'3 2.6
2015-Jan-25 07:21N 36°08' W 005°26'8 2.5
2015-Jan-25 04:13N 36°00' W 005°25'6 1.2
2015-Jan-24 23:28N 35°56' W 005°30'1313.9
2015-Jan-24 22:33N 36°08' W 005°25'1 0.7
2015-Jan-24 20:30N 36°09' W 005°26'1313.8
2015-Jan-24 19:34N 35°56' W 005°29'1 0.3
2015-Jan-24 16:33N 35°57' W 005°30'1111.4
2015-Jan-24 15:33N 36°07' W 005°24'2 1.5
2015-Jan-24 14:07N 36°08' W 005°26'0 0.0
2015-Jan-24 13:33N 36°08' W 005°26'8 6.9
2015-Jan-24 12:27N 36°01' W 005°24'7 2.1
2015-Jan-24 09:11N 35°56' W 005°30'6 8.8
2015-Jan-24 08:33N 36°00' W 005°25'8 1.3
2015-Jan-24 02:30N 36°08' W 005°26'10 9.2
2015-Jan-24 01:27N 35°58' W 005°26'6 2.0
2015-Jan-23 22:26N 35°54' W 005°31'910.5
2015-Jan-23 21:34N 36°01' W 005°25'6 0.9
2015-Jan-23 15:33N 35°57' W 005°29'6 1.7
2015-Jan-23 12:05N 36°01' W 005°24'10 3.2
2015-Jan-23 09:08N 35°53' W 005°31'712.0
2015-Jan-23 08:33N 35°60' W 005°27'8 1.3
2015-Jan-23 02:07N 36°08' W 005°26'8 8.3
2015-Jan-23 01:13N 36°01' W 005°25'6 2.1
2015-Jan-22 22:09N 35°56' W 005°30'814.1
2015-Jan-22 21:33N 36°03' W 005°24'5 3.4
2015-Jan-22 20:06N 36°08' W 005°26'0 0.0
2015-Jan-22 19:27N 36°08' W 005°26'9 9.4
2015-Jan-22 18:27N 35°58' W 005°26'7 3.3
2015-Jan-22 16:21N 35°53' W 005°31'1113.4
2015-Jan-22 15:33N 36°02' W 005°25'6 2.4
2015-Jan-22 13:05N 36°08' W 005°26'8 8.4
2015-Jan-22 12:08N 35°60' W 005°25'8 2.9
2015-Jan-22 09:22N 35°54' W 005°31'1012.5
2015-Jan-22 08:33N 36°02' W 005°25'6 1.1
2015-Jan-22 03:12N 36°08' W 005°26'7 6.2
2015-Jan-22 02:07N 36°01' W 005°24'5 2.0
2015-Jan-21 23:33N 35°58' W 005°29'1014.2
2015-Jan-21 22:50N 36°07' W 005°24'116.4
2015-Jan-21 22:46N 36°08' W 005°24'1 6.5
2015-Jan-21 22:33N 36°08' W 005°26'0 0.0
2015-Jan-21 21:07N 36°08' W 005°26'0 0.0
2015-Jan-21 20:33N 36°08' W 005°26'9 8.7
2015-Jan-21 19:33N 35°59' W 005°25'4 1.2
2015-Jan-21 16:33N 35°57' W 005°29'1211.8
2015-Jan-21 15:32N 36°09' W 005°26'10 1.4
2015-Jan-21 08:32N 35°59' W 005°28'9 9.1
2015-Jan-21 07:33N 36°08' W 005°26'0 0.0
2015-Jan-21 06:32N 36°08' W 005°26'0 0.0
2015-Jan-21 05:14N 36°08' W 005°26'0 0.0
2015-Jan-21 04:32N 36°08' W 005°26'0 0.0
2015-Jan-21 03:32N 36°08' W 005°26'0 0.0
2015-Jan-21 02:26N 36°08' W 005°26'0 0.5
2015-Jan-21 01:31N 36°08' W 005°26'1111.8
2015-Jan-21 00:33N 35°57' W 005°28'2 0.9
2015-Jan-20 22:19N 35°56' W 005°30'1114.8
2015-Jan-20 21:34N 36°06' W 005°24'3 2.7
2015-Jan-20 20:32N 36°08' W 005°26'7 5.1
2015-Jan-20 19:04N 36°01' W 005°24'6 2.4
2015-Jan-20 16:24N 35°56' W 005°30'1113.2
2015-Jan-20 15:32N 36°06' W 005°23'4 0.3
2015-Jan-20 01:22N 36°09' W 005°26'1113.7
2015-Jan-20 00:33N 35°58' W 005°25'3 1.3
2015-Jan-19 22:33N 35°59' W 005°28'  
Track history (hours):
 
Tides and Currents Weather Stations Pressure Air Temp Water Temp Dewpoint Dewpoint Depression Visibility Wind Speed Wind Dir Waves Ship Positions

Vronskiy

Last reported at 2015-Jan-28 08:33 UTC. Time now 2015-Jan-28 09:16 UTC.
Position N 35°59' W 005°28'.

Length 131 m; draft 5.2 m.

Type: Passenger vessel. MMSI: 210030000.

Date/timePositionNaut miles runAvg speedWind from/ knotsBaromVisibWave heightAir tempDewpointWater temp
2015-Jan-28 08:33N 35°59' W 005°28'10 1.6
2015-Jan-28 02:15N 36°09' W 005°26'1313.0
2015-Jan-28 01:17N 35°56' W 005°28'6 1.5
2015-Jan-27 21:33N 36°01' W 005°25'7 2.7
2015-Jan-27 19:09N 36°08' W 005°26'7 9.4
2015-Jan-27 18:23N 36°01' W 005°24'5 1.6
2015-Jan-27 15:33N 35°58' W 005°29'3 0.4
2015-Jan-27 08:32N 36°01' W 005°26'2 0.3
2015-Jan-27 01:15N 36°01' W 005°24'7 2.3
2015-Jan-26 22:15N 35°56' W 005°30'1115.0
2015-Jan-26 21:32N 36°06' W 005°24'11 2.0
2015-Jan-26 16:14N 35°56' W 005°30'1014.4
2015-Jan-26 15:33N 36°05' W 005°24'5 1.5
2015-Jan-26 12:29N 36°09' W 005°26'1313.1
2015-Jan-26 11:32N 35°57' W 005°28'2 0.7
2015-Jan-26 08:33N 35°59' W 005°29'6 1.4
2015-Jan-26 04:12N 36°03' W 005°24'6 1.8
2015-Jan-26 00:34N 35°58' W 005°29'10 3.2
2015-Jan-25 21:30N 36°08' W 005°26'1010.2
2015-Jan-25 20:31N 35°58' W 005°25'4 1.4
2015-Jan-25 17:28N 35°56' W 005°30'1213.6
2015-Jan-25 16:33N 36°08' W 005°24'2 1.8
2015-Jan-25 15:28N 36°08' W 005°26'0 0.0
2015-Jan-25 14:28N 36°08' W 005°26'0 0.0
2015-Jan-25 13:28N 36°08' W 005°26'7 6.2
2015-Jan-25 12:21N 36°01' W 005°24'9 3.4
2015-Jan-25 09:33N 35°54' W 005°31'1313.3
2015-Jan-25 08:33N 36°06' W 005°24'3 2.6
2015-Jan-25 07:21N 36°08' W 005°26'8 2.5
2015-Jan-25 04:13N 36°00' W 005°25'6 1.2
2015-Jan-24 23:28N 35°56' W 005°30'1313.9
2015-Jan-24 22:33N 36°08' W 005°25'1 0.7
2015-Jan-24 20:30N 36°09' W 005°26'1313.8
2015-Jan-24 19:34N 35°56' W 005°29'1 0.3
2015-Jan-24 16:33N 35°57' W 005°30'1111.4
2015-Jan-24 15:33N 36°07' W 005°24'2 1.5
2015-Jan-24 14:07N 36°08' W 005°26'0 0.0
2015-Jan-24 13:33N 36°08' W 005°26'8 6.9
2015-Jan-24 12:27N 36°01' W 005°24'7 2.1
2015-Jan-24 09:11N 35°56' W 005°30'6 8.8
2015-Jan-24 08:33N 36°00' W 005°25'8 1.3
2015-Jan-24 02:30N 36°08' W 005°26'10 9.2
2015-Jan-24 01:27N 35°58' W 005°26'6 2.0
2015-Jan-23 22:26N 35°54' W 005°31'910.5
2015-Jan-23 21:34N 36°01' W 005°25'6 0.9
2015-Jan-23 15:33N 35°57' W 005°29'6 1.7
2015-Jan-23 12:05N 36°01' W 005°24'10 3.2
2015-Jan-23 09:08N 35°53' W 005°31'712.0
2015-Jan-23 08:33N 35°60' W 005°27'8 1.3
2015-Jan-23 02:07N 36°08' W 005°26'8 8.3
2015-Jan-23 01:13N 36°01' W 005°25'6 2.1
2015-Jan-22 22:09N 35°56' W 005°30'814.1
2015-Jan-22 21:33N 36°03' W 005°24'5 3.4
2015-Jan-22 20:06N 36°08' W 005°26'0 0.0
2015-Jan-22 19:27N 36°08' W 005°26'9 9.4
2015-Jan-22 18:27N 35°58' W 005°26'7 3.3
2015-Jan-22 16:21N 35°53' W 005°31'1113.4
2015-Jan-22 15:33N 36°02' W 005°25'6 2.4
2015-Jan-22 13:05N 36°08' W 005°26'8 8.4
2015-Jan-22 12:08N 35°60' W 005°25'8 2.9
2015-Jan-22 09:22N 35°54' W 005°31'1012.5
2015-Jan-22 08:33N 36°02' W 005°25'6 1.1
2015-Jan-22 03:12N 36°08' W 005°26'7 6.2
2015-Jan-22 02:07N 36°01' W 005°24'5 2.0
2015-Jan-21 23:33N 35°58' W 005°29'1014.2
2015-Jan-21 22:50N 36°07' W 005°24'116.4
2015-Jan-21 22:46N 36°08' W 005°24'1 6.5
2015-Jan-21 22:33N 36°08' W 005°26'0 0.0
2015-Jan-21 21:07N 36°08' W 005°26'0 0.0
2015-Jan-21 20:33N 36°08' W 005°26'9 8.7
2015-Jan-21 19:33N 35°59' W 005°25'4 1.2
2015-Jan-21 16:33N 35°57' W 005°29'1211.8
2015-Jan-21 15:32N 36°09' W 005°26'10 1.4
2015-Jan-21 08:32N 35°59' W 005°28'9 9.1
2015-Jan-21 07:33N 36°08' W 005°26'0 0.0
2015-Jan-21 06:32N 36°08' W 005°26'0 0.0
2015-Jan-21 05:14N 36°08' W 005°26'0 0.0
2015-Jan-21 04:32N 36°08' W 005°26'0 0.0
2015-Jan-21 03:32N 36°08' W 005°26'0 0.0
2015-Jan-21 02:26N 36°08' W 005°26'0 0.5
2015-Jan-21 01:31N 36°08' W 005°26'1111.8
2015-Jan-21 00:33N 35°57' W 005°28'2 0.9
2015-Jan-20 22:19N 35°56' W 005°30'1114.8
2015-Jan-20 21:34N 36°06' W 005°24'3 2.7
2015-Jan-20 20:32N 36°08' W 005°26'7 5.1
2015-Jan-20 19:04N 36°01' W 005°24'6 2.4
2015-Jan-20 16:24N 35°56' W 005°30'1113.2
2015-Jan-20 15:32N 36°06' W 005°23'4 0.3
2015-Jan-20 01:22N 36°09' W 005°26'1113.7
2015-Jan-20 00:33N 35°58' W 005°25'3 1.3
2015-Jan-19 22:33N 35°59' W 005°28'  

Dump ship's entire track history